createdAt,value
2017-08-11T09:12:58.172Z,20.87
2017-08-11T09:12:58.745Z,20.83
2017-08-11T09:12:59.339Z,20.87
2017-08-11T09:12:59.940Z,20.87
2017-08-11T09:13:00.544Z,20.86
2017-08-11T09:13:01.151Z,20.86
2017-08-11T09:13:01.744Z,20.90
2017-08-11T09:13:02.340Z,20.86
2017-08-11T09:13:56.823Z,20.87
2017-08-11T09:13:57.416Z,20.81
2017-08-11T09:13:58.017Z,20.79
2017-08-11T09:13:58.623Z,20.91
2017-08-11T09:13:59.219Z,20.86
2017-08-11T09:13:59.824Z,20.77
2017-08-11T09:14:00.420Z,20.80
2017-08-11T09:14:01.019Z,20.80
2017-08-11T09:14:54.477Z,20.77
2017-08-11T09:14:55.077Z,20.77
2017-08-11T09:14:55.676Z,20.80
2017-08-11T09:14:56.276Z,20.79
2017-08-11T09:14:56.873Z,20.76
2017-08-11T09:14:57.469Z,20.79
2017-08-11T09:14:58.075Z,20.80
2017-08-11T09:14:58.673Z,20.84
2017-08-11T09:15:52.132Z,20.71
2017-08-11T09:15:52.729Z,20.79
2017-08-11T09:15:53.329Z,20.76
2017-08-11T09:15:53.925Z,20.77
2017-08-11T09:15:54.525Z,20.71
2017-08-11T09:15:55.125Z,20.74
2017-08-11T09:15:55.728Z,20.79
2017-08-11T09:15:56.327Z,20.77
2017-08-11T09:16:51.317Z,20.64
2017-08-11T09:16:51.909Z,20.62
2017-08-11T09:16:52.511Z,20.64
2017-08-11T09:16:53.111Z,20.64
2017-08-11T09:16:53.712Z,20.66
2017-08-11T09:16:54.312Z,20.65
2017-08-11T09:16:54.912Z,20.66
2017-08-11T09:17:48.483Z,20.59
2017-08-11T09:17:49.052Z,20.58
2017-08-11T09:17:49.653Z,20.56
2017-08-11T09:17:50.256Z,20.62
2017-08-11T09:17:50.853Z,20.61
2017-08-11T09:17:51.455Z,20.64
2017-08-11T09:17:52.051Z,20.64
2017-08-11T09:17:52.656Z,20.61
2017-08-11T09:18:47.130Z,20.59
2017-08-11T09:18:47.730Z,20.62
2017-08-11T09:18:48.331Z,20.58
2017-08-11T09:18:48.924Z,20.51
2017-08-11T09:18:49.531Z,20.64
2017-08-11T09:18:50.124Z,20.64
2017-08-11T09:18:50.728Z,20.51
2017-08-11T09:18:51.323Z,20.61
2017-08-11T09:19:44.787Z,20.58
2017-08-11T09:19:45.376Z,20.49
2017-08-11T09:19:45.980Z,20.56
2017-08-11T09:19:46.580Z,20.50
2017-08-11T09:19:47.179Z,20.56
2017-08-11T09:19:47.783Z,20.58
2017-08-11T09:19:48.386Z,20.58
2017-08-11T09:19:48.980Z,20.46
2017-08-11T09:20:42.440Z,20.50
2017-08-11T09:20:43.029Z,20.50
2017-08-11T09:20:43.629Z,20.49
2017-08-11T09:20:44.229Z,20.53
2017-08-11T09:20:44.836Z,20.42
2017-08-11T09:20:45.427Z,20.49
2017-08-11T09:20:46.029Z,20.53
2017-08-11T09:20:46.634Z,20.53
2017-08-11T09:21:40.594Z,20.43
2017-08-11T09:21:41.198Z,20.53
2017-08-11T09:21:41.796Z,20.50
2017-08-11T09:21:42.393Z,20.43
2017-08-11T09:21:42.991Z,20.51
2017-08-11T09:21:43.590Z,20.47
2017-08-11T09:21:44.195Z,20.51
2017-08-11T09:22:38.662Z,20.50
2017-08-11T09:22:39.255Z,20.50
2017-08-11T09:22:39.856Z,20.50
2017-08-11T09:22:40.455Z,20.46
2017-08-11T09:22:41.059Z,20.53
2017-08-11T09:22:41.652Z,20.49
2017-08-11T09:22:42.259Z,20.50
2017-08-11T09:22:42.852Z,20.50
2017-08-11T09:23:36.330Z,20.42
2017-08-11T09:23:36.909Z,20.39
2017-08-11T09:23:37.511Z,20.46
2017-08-11T09:23:38.111Z,20.39
2017-08-11T09:23:38.709Z,20.42
2017-08-11T09:23:39.311Z,20.38
2017-08-11T09:23:39.910Z,20.41
2017-08-11T09:23:40.510Z,20.46
2017-08-11T09:24:33.968Z,20.42
2017-08-11T09:24:34.565Z,20.42
2017-08-11T09:24:35.160Z,20.39
2017-08-11T09:24:35.761Z,20.39
2017-08-11T09:24:36.361Z,20.43
2017-08-11T09:24:36.957Z,20.34
2017-08-11T09:24:37.560Z,20.43
2017-08-11T09:24:38.160Z,20.38
2017-08-11T09:25:31.615Z,20.34
2017-08-11T09:25:32.214Z,20.38
2017-08-11T09:25:32.808Z,20.35
2017-08-11T09:25:33.411Z,20.31
2017-08-11T09:25:34.015Z,20.34
2017-08-11T09:25:34.607Z,20.30
2017-08-11T09:25:35.212Z,20.38
2017-08-11T09:25:35.811Z,20.33
2017-08-11T09:26:29.271Z,20.25
2017-08-11T09:26:29.868Z,20.33
2017-08-11T09:26:30.461Z,20.30
2017-08-11T09:26:31.060Z,20.27
2017-08-11T09:26:31.664Z,20.28
2017-08-11T09:26:32.264Z,20.28
2017-08-11T09:26:32.859Z,20.25
2017-08-11T09:26:33.466Z,20.31
2017-08-11T09:27:26.919Z,20.18
2017-08-11T09:27:27.515Z,20.23
2017-08-11T09:27:28.112Z,20.24
2017-08-11T09:27:28.712Z,20.21
2017-08-11T09:27:29.314Z,20.24
2017-08-11T09:27:29.913Z,20.23
2017-08-11T09:27:30.518Z,20.21
2017-08-11T09:27:31.118Z,20.25
2017-08-11T09:28:25.616Z,20.09
2017-08-11T09:28:26.192Z,20.12
2017-08-11T09:28:26.791Z,20.09
2017-08-11T09:28:27.390Z,20.09
2017-08-11T09:28:27.991Z,20.13
2017-08-11T09:28:28.592Z,20.08
2017-08-11T09:28:29.190Z,20.05
2017-08-11T09:28:29.795Z,20.18
2017-08-11T09:29:24.270Z,19.98
2017-08-11T09:29:24.874Z,20.09
2017-08-11T09:29:25.463Z,20.08
2017-08-11T09:29:26.066Z,20.05
2017-08-11T09:29:26.665Z,20.09
2017-08-11T09:29:27.269Z,19.97
2017-08-11T09:29:27.865Z,20.09
2017-08-11T09:29:28.462Z,20.03
2017-08-11T09:30:22.944Z,19.97
2017-08-11T09:30:23.541Z,19.98
2017-08-11T09:30:24.143Z,20.00
2017-08-11T09:30:24.743Z,19.97
2017-08-11T09:30:25.341Z,20.00
2017-08-11T09:30:25.941Z,19.95
2017-08-11T09:30:26.541Z,19.97
2017-08-11T09:30:27.137Z,19.95
2017-08-11T09:31:21.621Z,19.98
2017-08-11T09:31:22.214Z,19.97
2017-08-11T09:31:22.816Z,19.98
2017-08-11T09:31:23.412Z,19.95
2017-08-11T09:31:24.022Z,20.02
2017-08-11T09:31:24.613Z,20.02
2017-08-11T09:31:25.216Z,19.95
2017-08-11T09:31:25.819Z,20.02
2017-08-11T09:50:23.203Z,19.55
2017-08-11T09:50:23.777Z,19.55
2017-08-11T09:50:24.374Z,19.54
2017-08-11T09:50:24.978Z,19.51
2017-08-11T09:50:25.576Z,19.55
2017-08-11T09:50:26.177Z,19.57
2017-08-11T09:50:26.773Z,19.57
2017-08-11T09:50:27.382Z,19.66
2017-08-11T09:51:21.861Z,19.58
2017-08-11T09:51:22.454Z,19.50
2017-08-11T09:51:23.058Z,19.55
2017-08-11T09:51:23.654Z,19.57
2017-08-11T09:51:24.253Z,19.57
2017-08-11T09:51:24.851Z,19.57
2017-08-11T09:51:25.458Z,19.53
2017-08-11T09:51:26.054Z,19.54
2017-08-11T09:52:20.535Z,19.51
2017-08-11T09:52:21.134Z,19.57
2017-08-11T09:52:21.732Z,19.51
2017-08-11T09:52:22.330Z,19.55
2017-08-11T09:52:22.929Z,19.55
2017-08-11T09:52:23.531Z,19.57
2017-08-11T09:52:24.126Z,19.53
2017-08-11T09:52:24.734Z,19.54
2017-08-11T09:53:18.188Z,19.55
2017-08-11T09:53:18.784Z,19.57
2017-08-11T09:53:19.390Z,19.53
2017-08-11T09:53:19.984Z,19.58
2017-08-11T09:53:20.581Z,19.57
2017-08-11T09:53:21.191Z,19.55
2017-08-11T09:53:21.784Z,19.57
2017-08-11T09:53:22.385Z,19.55
2017-08-11T09:54:16.889Z,19.65
2017-08-11T09:54:17.472Z,19.65
2017-08-11T09:54:18.054Z,19.65
2017-08-11T09:54:18.663Z,19.61
2017-08-11T09:54:19.258Z,19.60
2017-08-11T09:54:19.854Z,19.57
2017-08-11T09:54:20.452Z,19.60
2017-08-11T09:54:21.052Z,19.63
2017-08-11T09:55:14.515Z,19.78
2017-08-11T09:55:15.110Z,19.80
2017-08-11T09:55:15.709Z,19.75
2017-08-11T09:55:16.314Z,19.78
2017-08-11T09:55:16.911Z,19.73
2017-08-11T09:55:17.511Z,19.76
2017-08-11T09:55:18.109Z,19.80
2017-08-11T09:55:18.710Z,19.79
2017-08-11T09:56:12.169Z,19.83
2017-08-11T09:56:12.759Z,19.80
2017-08-11T09:56:13.363Z,19.79
2017-08-11T09:56:13.966Z,19.83
2017-08-11T09:56:14.561Z,19.84
2017-08-11T09:56:15.165Z,19.79
2017-08-11T09:56:15.766Z,19.79
2017-08-11T09:56:16.364Z,19.84
2017-08-11T09:57:10.844Z,19.90
2017-08-11T09:57:11.442Z,19.87
2017-08-11T09:57:12.036Z,19.90
2017-08-11T09:57:12.635Z,19.88
2017-08-11T09:57:13.233Z,19.86
2017-08-11T09:57:13.837Z,19.87
2017-08-11T09:57:14.432Z,19.91
2017-08-11T09:57:15.038Z,19.87
2017-08-11T09:58:09.520Z,19.90
2017-08-11T09:58:10.118Z,19.84
2017-08-11T09:58:10.717Z,19.97
2017-08-11T09:58:11.318Z,19.93
2017-08-11T09:58:11.916Z,19.93
2017-08-11T09:58:12.513Z,19.94
2017-08-11T09:58:13.112Z,19.93
2017-08-11T09:58:13.719Z,19.94
2017-08-11T09:59:08.194Z,19.98
2017-08-11T09:59:08.786Z,19.91
2017-08-11T09:59:09.394Z,20.03
2017-08-11T09:59:09.990Z,19.90
2017-08-11T09:59:10.593Z,19.98
2017-08-11T09:59:11.189Z,19.91
2017-08-11T09:59:11.789Z,19.91
2017-08-11T09:59:12.394Z,19.91
2017-08-11T10:00:07.175Z,19.90
2017-08-11T10:00:07.689Z,19.91
2017-08-11T10:00:08.283Z,19.91
2017-08-11T10:00:08.891Z,19.91
2017-08-11T10:00:09.489Z,19.94
2017-08-11T10:00:10.085Z,19.90
2017-08-11T10:00:10.690Z,19.90
2017-08-11T10:00:11.285Z,19.87
2017-08-11T10:01:05.343Z,19.91
2017-08-11T10:01:05.935Z,19.93
2017-08-11T10:01:06.537Z,19.87
2017-08-11T10:01:07.134Z,19.87
2017-08-11T10:01:07.737Z,19.93
2017-08-11T10:01:08.340Z,19.94
2017-08-11T10:01:08.940Z,19.98
2017-08-11T10:01:09.533Z,19.91
2017-08-11T10:02:04.016Z,19.84
2017-08-11T10:02:04.614Z,19.90
2017-08-11T10:02:05.207Z,19.91
2017-08-11T10:02:05.811Z,20.00
2017-08-11T10:02:06.411Z,19.84
2017-08-11T10:02:07.014Z,19.90
2017-08-11T10:02:07.617Z,19.94
2017-08-11T10:02:08.216Z,19.93
2017-08-11T10:03:02.692Z,20.03
2017-08-11T10:03:03.284Z,19.88
2017-08-11T10:03:03.887Z,20.00
2017-08-11T10:03:04.485Z,20.00
2017-08-11T10:03:05.087Z,19.87
2017-08-11T10:03:05.732Z,19.95
2017-08-11T10:03:06.293Z,20.03
2017-08-11T10:03:06.887Z,19.98
2017-08-11T10:04:00.341Z,19.97
2017-08-11T10:04:00.938Z,19.97
2017-08-11T10:04:01.584Z,19.94
2017-08-11T10:04:02.141Z,19.97
2017-08-11T10:04:02.778Z,20.05
2017-08-11T10:04:03.388Z,19.97
2017-08-11T10:04:03.988Z,19.98
2017-08-11T10:04:04.544Z,19.97
2017-08-11T10:04:57.998Z,19.97
2017-08-11T10:04:58.589Z,19.98
2017-08-11T10:04:59.191Z,19.97
2017-08-11T10:04:59.796Z,19.98
2017-08-11T10:05:00.387Z,19.95
2017-08-11T10:05:00.994Z,19.97
2017-08-11T10:05:01.592Z,19.91
2017-08-11T10:05:02.189Z,20.02
2017-08-11T10:05:55.673Z,19.95
2017-08-11T10:05:56.239Z,19.90
2017-08-11T10:05:56.840Z,19.94
2017-08-11T10:05:57.439Z,20.00
2017-08-11T10:05:58.043Z,19.94
2017-08-11T10:05:58.644Z,19.97
2017-08-11T10:05:59.247Z,19.97
2017-08-11T10:05:59.843Z,19.98
2017-08-11T10:06:53.302Z,19.88
2017-08-11T10:06:53.891Z,19.88
2017-08-11T10:06:54.498Z,19.90
2017-08-11T10:06:55.093Z,19.91
2017-08-11T10:06:55.699Z,19.91
2017-08-11T10:06:56.296Z,19.91
2017-08-11T10:06:56.893Z,19.95
2017-08-11T10:06:57.493Z,19.94
2017-08-11T10:07:50.951Z,19.90
2017-08-11T10:07:51.548Z,19.95
2017-08-11T10:07:52.147Z,19.91
2017-08-11T10:07:52.746Z,19.88
2017-08-11T10:07:53.345Z,19.90
2017-08-11T10:07:53.948Z,19.94
2017-08-11T10:07:54.549Z,19.91
2017-08-11T10:07:55.150Z,19.87
2017-08-11T10:08:49.625Z,19.87
2017-08-11T10:08:50.224Z,19.84
2017-08-11T10:08:50.820Z,19.88
2017-08-11T10:08:51.420Z,19.91
2017-08-11T10:08:52.018Z,19.90
2017-08-11T10:08:52.616Z,19.88
2017-08-11T10:08:53.225Z,19.90
2017-08-11T10:08:53.821Z,19.88
2017-08-11T10:09:48.297Z,19.93
2017-08-11T10:09:48.900Z,19.84
2017-08-11T10:09:49.495Z,19.88
2017-08-11T10:09:50.092Z,19.90
2017-08-11T10:09:50.697Z,19.90
2017-08-11T10:09:51.296Z,19.91
2017-08-11T10:09:51.900Z,19.91
2017-08-11T10:09:52.496Z,19.90
2017-08-11T10:10:47.002Z,19.88
2017-08-11T10:10:47.576Z,19.91
2017-08-11T10:10:48.169Z,19.79
2017-08-11T10:10:48.776Z,19.91
2017-08-11T10:10:49.371Z,19.86
2017-08-11T10:10:49.969Z,19.88
2017-08-11T10:10:50.569Z,19.88
2017-08-11T10:10:51.173Z,19.90
2017-08-11T10:11:44.632Z,19.90
2017-08-11T10:11:45.226Z,19.91
2017-08-11T10:11:45.828Z,19.83
2017-08-11T10:11:46.421Z,19.91
2017-08-11T10:11:47.027Z,19.86
2017-08-11T10:11:47.625Z,19.80
2017-08-11T10:11:48.231Z,19.88
2017-08-11T10:11:48.828Z,19.79
2017-08-11T10:12:42.277Z,19.83
2017-08-11T10:12:42.878Z,19.83
2017-08-11T10:12:43.473Z,19.80
2017-08-11T10:12:44.076Z,19.83
2017-08-11T10:12:44.678Z,19.80
2017-08-11T10:12:45.277Z,19.83
2017-08-11T10:12:45.873Z,19.83
2017-08-11T10:12:46.482Z,19.80
2017-08-11T10:13:39.935Z,19.78
2017-08-11T10:13:40.527Z,19.78
2017-08-11T10:13:41.127Z,19.79
2017-08-11T10:13:41.724Z,19.79
2017-08-11T10:13:42.335Z,19.80
2017-08-11T10:13:42.927Z,19.78
2017-08-11T10:13:43.528Z,19.78
2017-08-11T10:13:44.127Z,19.79
2017-08-11T10:14:38.603Z,19.79
2017-08-11T10:14:39.201Z,19.75
2017-08-11T10:14:39.803Z,19.79
2017-08-11T10:14:40.407Z,19.79
2017-08-11T10:14:41.004Z,19.80
2017-08-11T10:14:41.608Z,19.72
2017-08-11T10:14:42.203Z,19.76
2017-08-11T10:14:42.804Z,19.79
2017-08-11T10:15:37.280Z,19.72
2017-08-11T10:15:37.883Z,19.73
2017-08-11T10:15:38.476Z,19.75
2017-08-11T10:15:39.074Z,19.72
2017-08-11T10:15:39.678Z,19.69
2017-08-11T10:15:40.282Z,19.69
2017-08-11T10:15:40.877Z,19.69
2017-08-11T10:15:41.476Z,19.68
2017-08-11T10:16:34.963Z,19.66
2017-08-11T10:16:35.531Z,19.70
2017-08-11T10:16:36.134Z,19.66
2017-08-11T10:16:36.731Z,19.63
2017-08-11T10:16:37.335Z,19.60
2017-08-11T10:16:37.933Z,19.63
2017-08-11T10:16:38.536Z,19.61
2017-08-11T10:16:39.131Z,19.72
2017-08-11T10:17:32.587Z,19.58
2017-08-11T10:17:33.185Z,19.65
2017-08-11T10:17:33.787Z,19.63
2017-08-11T10:17:34.382Z,19.69
2017-08-11T10:17:34.987Z,19.63
2017-08-11T10:17:35.590Z,19.65
2017-08-11T10:17:36.186Z,19.69
2017-08-11T10:17:36.778Z,19.61
2017-08-11T10:18:30.238Z,19.55
2017-08-11T10:18:30.835Z,19.54
2017-08-11T10:18:31.434Z,19.55
2017-08-11T10:18:32.033Z,19.54
2017-08-11T10:18:32.638Z,19.65
2017-08-11T10:18:33.235Z,19.60
2017-08-11T10:18:33.837Z,19.54
2017-08-11T10:18:34.437Z,19.54
2017-08-11T10:19:27.887Z,19.54
2017-08-11T10:19:28.486Z,19.55
2017-08-11T10:19:29.085Z,19.55
2017-08-11T10:19:29.690Z,19.54
2017-08-11T10:19:30.285Z,19.55
2017-08-11T10:19:30.880Z,19.58
2017-08-11T10:19:31.485Z,19.55
2017-08-11T10:19:32.089Z,19.57
2017-08-11T10:20:25.545Z,19.54
2017-08-11T10:20:26.134Z,19.53
2017-08-11T10:20:26.738Z,19.57
2017-08-11T10:20:27.338Z,19.58
2017-08-11T10:20:27.941Z,19.57
2017-08-11T10:20:28.539Z,19.55
2017-08-11T10:20:29.138Z,19.54
2017-08-11T10:20:29.739Z,19.58
2017-08-11T10:21:24.252Z,19.48
2017-08-11T10:21:24.813Z,19.53
2017-08-11T10:21:25.412Z,19.54
2017-08-11T10:21:26.016Z,19.54
2017-08-11T10:21:26.612Z,19.54
2017-08-11T10:21:27.211Z,19.53
2017-08-11T10:21:27.815Z,19.48
2017-08-11T10:21:28.412Z,19.54
2017-08-11T10:22:23.403Z,19.43
2017-08-11T10:22:24.001Z,19.55
2017-08-11T10:22:24.596Z,19.55
2017-08-11T10:22:25.202Z,19.50
2017-08-11T10:22:25.796Z,19.54
2017-08-11T10:22:26.396Z,19.46
2017-08-11T10:23:20.438Z,19.50
2017-08-11T10:23:21.043Z,19.42
2017-08-11T10:23:21.635Z,19.53
2017-08-11T10:23:22.241Z,19.54
2017-08-11T10:23:22.841Z,19.50
2017-08-11T10:23:23.442Z,19.51
2017-08-11T10:23:24.036Z,19.46
2017-08-11T10:23:24.641Z,19.54
2017-08-11T10:24:19.120Z,19.46
2017-08-11T10:24:19.716Z,19.48
2017-08-11T10:24:20.311Z,19.39
2017-08-11T10:24:20.909Z,19.40
2017-08-11T10:24:21.513Z,19.60
2017-08-11T10:24:22.116Z,19.46
2017-08-11T10:24:22.712Z,19.54
2017-08-11T10:24:23.312Z,19.53
2017-08-11T10:25:17.796Z,19.55
2017-08-11T10:25:18.384Z,19.54
2017-08-11T10:25:18.989Z,19.46
2017-08-11T10:25:19.592Z,19.57
2017-08-11T10:25:20.186Z,19.50
2017-08-11T10:25:20.789Z,19.54
2017-08-11T10:25:21.386Z,19.51
2017-08-11T10:25:21.984Z,19.48
2017-08-11T10:26:16.467Z,19.51
2017-08-11T10:26:17.065Z,19.50
2017-08-11T10:26:17.664Z,19.57
2017-08-11T10:26:18.260Z,19.53
2017-08-11T10:26:18.860Z,19.57
2017-08-11T10:26:19.463Z,19.53
2017-08-11T10:26:20.065Z,19.51
2017-08-11T10:26:20.665Z,19.50
2017-08-11T10:27:14.142Z,19.55
2017-08-11T10:27:14.716Z,19.55
2017-08-11T10:27:15.321Z,19.55
2017-08-11T10:27:15.918Z,19.50
2017-08-11T10:27:16.518Z,19.58
2017-08-11T10:27:17.116Z,19.57
2017-08-11T10:27:17.717Z,19.57
2017-08-11T10:27:18.317Z,19.57
2017-08-11T10:28:11.773Z,19.46
2017-08-11T10:28:12.367Z,19.46
2017-08-11T10:28:12.979Z,19.48
2017-08-11T10:28:13.573Z,19.54
2017-08-11T10:28:14.169Z,19.48
2017-08-11T10:28:14.771Z,19.54
2017-08-11T10:28:15.371Z,19.48
2017-08-11T10:28:15.971Z,19.58
2017-08-11T10:29:09.428Z,19.48
2017-08-11T10:29:10.022Z,19.55
2017-08-11T10:29:10.617Z,19.54
2017-08-11T10:29:11.221Z,19.51
2017-08-11T10:29:11.825Z,19.50
2017-08-11T10:29:12.421Z,19.54
2017-08-11T10:29:13.023Z,19.50
2017-08-11T10:29:13.619Z,19.51
2017-08-11T10:30:07.075Z,19.55
2017-08-11T10:30:07.676Z,19.55
2017-08-11T10:30:08.273Z,19.50
2017-08-11T10:30:08.873Z,19.54
2017-08-11T10:30:09.473Z,19.53
2017-08-11T10:30:10.068Z,19.54
2017-08-11T10:30:10.668Z,19.53
2017-08-11T10:30:11.274Z,19.53
2017-08-11T10:31:04.723Z,19.50
2017-08-11T10:31:05.323Z,19.53
2017-08-11T10:31:05.920Z,19.54
2017-08-11T10:31:06.525Z,19.55
2017-08-11T10:31:07.122Z,19.55
2017-08-11T10:31:07.726Z,19.53
2017-08-11T10:31:08.323Z,19.57
2017-08-11T10:31:08.926Z,19.55
2017-08-11T10:32:03.438Z,19.48
2017-08-11T10:32:03.996Z,19.54
2017-08-11T10:32:04.602Z,19.58
2017-08-11T10:32:05.195Z,19.54
2017-08-11T10:32:05.802Z,19.53
2017-08-11T10:32:06.395Z,19.51
2017-08-11T10:32:06.994Z,19.55
2017-08-11T10:32:07.598Z,19.51
2017-08-11T10:33:02.076Z,19.54
2017-08-11T10:33:02.673Z,19.48
2017-08-11T10:33:03.275Z,19.47
2017-08-11T10:33:03.871Z,19.39
2017-08-11T10:33:04.473Z,19.47
2017-08-11T10:33:05.075Z,19.53
2017-08-11T10:33:05.675Z,19.46
2017-08-11T10:33:06.271Z,19.54
2017-08-11T10:34:00.759Z,19.50
2017-08-11T10:34:01.355Z,19.42
2017-08-11T10:34:01.950Z,19.51
2017-08-11T10:34:02.545Z,19.38
2017-08-11T10:34:03.151Z,19.46
2017-08-11T10:34:03.751Z,19.46
2017-08-11T10:34:04.349Z,19.39
2017-08-11T10:34:04.950Z,19.43
2017-08-11T10:34:58.414Z,19.54
2017-08-11T10:34:58.999Z,19.55
2017-08-11T10:34:59.609Z,19.40
2017-08-11T10:35:00.201Z,19.43
2017-08-11T10:35:00.800Z,19.53
2017-08-11T10:35:01.405Z,19.54
2017-08-11T10:35:02.005Z,19.55
2017-08-11T10:35:02.601Z,19.50
2017-08-11T10:35:57.084Z,19.54
2017-08-11T10:35:57.674Z,19.63
2017-08-11T10:35:58.281Z,19.51
2017-08-11T10:35:58.877Z,19.58
2017-08-11T10:35:59.472Z,19.54
2017-08-11T10:36:00.072Z,19.57
2017-08-11T10:36:00.674Z,19.54
2017-08-11T10:36:01.274Z,19.58
2017-08-11T10:36:55.752Z,19.55
2017-08-11T10:36:56.355Z,19.55
2017-08-11T10:36:56.958Z,19.55
2017-08-11T10:36:57.552Z,19.54
2017-08-11T10:36:58.153Z,19.55
2017-08-11T10:36:58.756Z,19.57
2017-08-11T10:36:59.350Z,19.54
2017-08-11T10:36:59.954Z,19.54
2017-08-11T10:37:53.427Z,19.54
2017-08-11T10:37:54.001Z,19.53
2017-08-11T10:37:54.610Z,19.57
2017-08-11T10:37:55.209Z,19.55
2017-08-11T10:37:55.805Z,19.61
2017-08-11T10:37:56.403Z,19.61
2017-08-11T10:37:57.009Z,19.51
2017-08-11T10:37:57.605Z,19.58
2017-08-11T10:38:52.083Z,19.63
2017-08-11T10:38:52.685Z,19.68
2017-08-11T10:38:53.281Z,19.58
2017-08-11T10:38:53.879Z,19.61
2017-08-11T10:38:54.476Z,19.58
2017-08-11T10:38:55.080Z,19.65
2017-08-11T10:38:55.683Z,19.58
2017-08-11T10:38:56.280Z,19.60
2017-08-11T10:39:49.736Z,19.69
2017-08-11T10:39:50.336Z,19.68
2017-08-11T10:39:50.933Z,19.72
2017-08-11T10:39:51.531Z,19.70
2017-08-11T10:39:52.130Z,19.72
2017-08-11T10:39:52.770Z,19.66
2017-08-11T10:39:53.327Z,19.65
2017-08-11T10:39:53.933Z,19.70
2017-08-11T10:40:47.387Z,19.70
2017-08-11T10:40:47.979Z,19.78
2017-08-11T10:40:48.583Z,19.73
2017-08-11T10:40:49.184Z,19.79
2017-08-11T10:40:49.787Z,19.76
2017-08-11T10:40:50.383Z,19.75
2017-08-11T10:40:50.988Z,19.75
2017-08-11T10:40:51.610Z,19.76
2017-08-11T10:41:45.040Z,19.88
2017-08-11T10:41:45.636Z,19.87
2017-08-11T10:41:46.235Z,19.87
2017-08-11T10:41:46.835Z,19.88
2017-08-11T10:41:47.436Z,19.88
2017-08-11T10:41:48.036Z,19.88
2017-08-11T10:41:48.636Z,19.87
2017-08-11T10:41:49.235Z,19.86
2017-08-11T10:42:42.691Z,19.94
2017-08-11T10:42:43.289Z,19.93
2017-08-11T10:42:43.888Z,19.98
2017-08-11T10:42:44.490Z,19.87
2017-08-11T10:42:45.088Z,19.91
2017-08-11T10:42:45.688Z,19.90
2017-08-11T10:42:46.291Z,19.93
2017-08-11T10:42:46.886Z,19.94
2017-08-11T10:43:41.387Z,19.97
2017-08-11T10:43:41.962Z,19.97
2017-08-11T10:43:42.558Z,20.00
2017-08-11T10:43:43.161Z,19.95
2017-08-11T10:43:43.762Z,19.94
2017-08-11T10:43:44.361Z,20.03
2017-08-11T10:43:44.964Z,19.93
2017-08-11T10:43:45.559Z,20.02
2017-08-11T10:44:40.038Z,20.00
2017-08-11T10:44:40.638Z,19.97
2017-08-11T10:44:41.235Z,20.02
2017-08-11T10:44:41.841Z,19.97
2017-08-11T10:44:42.433Z,19.94
2017-08-11T10:44:43.041Z,20.02
2017-08-11T10:44:43.637Z,20.05
2017-08-11T10:44:44.236Z,19.93
2017-08-11T10:45:37.694Z,19.98
2017-08-11T10:45:38.294Z,19.97
2017-08-11T10:45:38.891Z,19.97
2017-08-11T10:45:39.495Z,20.06
2017-08-11T10:45:40.090Z,19.98
2017-08-11T10:45:40.693Z,20.00
2017-08-11T10:45:41.289Z,19.98
2017-08-11T10:45:41.889Z,19.98
2017-08-11T10:46:35.342Z,20.08
2017-08-11T10:46:35.944Z,20.08
2017-08-11T10:46:36.555Z,20.10
2017-08-11T10:46:37.144Z,20.00
2017-08-11T10:46:37.741Z,20.09
2017-08-11T10:46:38.337Z,19.97
2017-08-11T10:46:38.942Z,20.09
2017-08-11T10:46:39.544Z,20.08
2017-08-11T12:57:16.397Z,23.49
2017-08-11T12:57:16.978Z,23.46
2017-08-11T12:57:17.578Z,23.52
2017-08-11T12:57:18.173Z,23.46
2017-08-11T12:57:18.773Z,23.46
2017-08-11T12:57:19.369Z,23.45
2017-08-11T12:57:19.972Z,23.49
2017-08-11T12:57:20.572Z,23.57
2017-08-11T12:58:15.083Z,23.40
2017-08-11T12:58:15.666Z,23.43
2017-08-11T12:58:16.254Z,23.45
2017-08-11T12:58:16.854Z,23.40
2017-08-11T12:58:17.450Z,23.46
2017-08-11T12:58:18.051Z,23.42
2017-08-11T12:58:18.647Z,23.45
2017-08-11T12:58:19.257Z,23.38
2017-08-11T12:59:25.510Z,23.34
2017-08-11T12:59:26.100Z,23.32
2017-08-11T12:59:26.704Z,23.45
2017-08-11T12:59:27.300Z,23.42
2017-08-11T12:59:27.912Z,23.39
2017-08-11T12:59:28.499Z,23.35
2017-08-11T12:59:29.099Z,23.34
2017-08-11T12:59:29.704Z,23.42
2017-08-11T13:00:24.182Z,23.29
2017-08-11T13:00:24.783Z,23.27
2017-08-11T13:00:25.379Z,23.39
2017-08-11T13:00:25.978Z,23.29
2017-08-11T13:00:26.578Z,23.32
2017-08-11T13:00:27.184Z,23.32
2017-08-11T13:00:27.779Z,23.35
2017-08-11T13:00:28.377Z,23.39
2017-08-11T13:01:22.858Z,23.26
2017-08-11T13:01:23.452Z,23.32
2017-08-11T13:01:24.058Z,23.32
2017-08-11T13:01:24.655Z,23.34
2017-08-11T13:01:25.251Z,23.32
2017-08-11T13:01:25.850Z,23.31
2017-08-11T13:01:26.449Z,23.32
2017-08-11T13:01:27.054Z,23.32
2017-08-11T13:02:21.542Z,23.29
2017-08-11T13:02:22.131Z,23.23
2017-08-11T13:02:22.728Z,23.23
2017-08-11T13:02:23.335Z,23.20
2017-08-11T13:02:23.951Z,23.17
2017-08-11T13:02:24.530Z,23.23
2017-08-11T13:02:25.130Z,23.22
2017-08-11T13:02:25.729Z,23.23
2017-08-11T13:03:20.237Z,23.12
2017-08-11T13:03:20.806Z,23.15
2017-08-11T13:03:21.406Z,23.11
2017-08-11T13:03:22.003Z,23.12
2017-08-11T13:03:22.609Z,23.05
2017-08-11T13:03:23.222Z,23.17
2017-08-11T13:03:23.805Z,23.07
2017-08-11T13:03:24.409Z,23.12
2017-08-11T13:04:18.885Z,23.08
2017-08-11T13:04:19.487Z,23.08
2017-08-11T13:04:20.079Z,23.11
2017-08-11T13:04:20.684Z,23.12
2017-08-11T13:04:21.282Z,23.12
2017-08-11T13:04:21.877Z,23.14
2017-08-11T13:04:22.496Z,23.09
2017-08-11T13:04:23.082Z,23.12
2017-08-11T13:05:59.035Z,22.75
2017-08-11T13:05:59.627Z,22.82
2017-08-11T13:06:00.225Z,22.75
2017-08-11T13:06:00.827Z,22.72
2017-08-11T13:06:01.427Z,22.74
2017-08-11T13:06:02.023Z,22.82
2017-08-11T13:06:02.624Z,22.74
2017-08-11T13:06:03.227Z,22.75
2017-08-11T13:06:56.685Z,22.54
2017-08-11T13:06:57.283Z,22.54
2017-08-11T13:06:57.884Z,22.59
2017-08-11T13:06:58.485Z,22.52
2017-08-11T13:06:59.078Z,22.52
2017-08-11T13:06:59.684Z,22.50
2017-08-11T13:07:00.277Z,22.47
2017-08-11T13:07:00.881Z,22.50
2017-08-11T13:07:54.338Z,22.41
2017-08-11T13:07:54.937Z,22.47
2017-08-11T13:07:55.537Z,22.46
2017-08-11T13:07:56.134Z,22.49
2017-08-11T13:07:56.737Z,22.50
2017-08-11T13:07:57.328Z,22.47
2017-08-11T13:07:57.933Z,22.47
2017-08-11T13:07:58.538Z,22.50
2017-08-11T13:08:53.035Z,22.32
2017-08-11T13:08:53.604Z,22.34
2017-08-11T13:08:54.210Z,22.29
2017-08-11T13:08:54.811Z,22.27
2017-08-11T13:08:55.409Z,22.35
2017-08-11T13:08:56.017Z,22.35
2017-08-11T13:08:56.611Z,22.31
2017-08-11T13:08:57.208Z,22.27
2017-08-11T13:09:50.665Z,22.19
2017-08-11T13:09:51.263Z,22.17
2017-08-11T13:09:51.858Z,22.16
2017-08-11T13:09:52.464Z,22.19
2017-08-11T13:09:53.059Z,22.19
2017-08-11T13:09:53.662Z,22.19
2017-08-11T13:09:54.258Z,22.19
2017-08-11T13:09:54.868Z,22.19
2017-08-11T13:10:49.339Z,22.04
2017-08-11T13:10:49.936Z,22.07
2017-08-11T13:10:50.537Z,22.04
2017-08-11T13:10:51.140Z,22.07
2017-08-11T13:10:51.736Z,22.07
2017-08-11T13:10:52.340Z,22.06
2017-08-11T13:10:52.936Z,22.02
2017-08-11T13:10:53.536Z,22.07
2017-08-11T13:11:48.016Z,21.99
2017-08-11T13:11:48.617Z,21.97
2017-08-11T13:11:49.211Z,21.97
2017-08-11T13:11:49.815Z,21.95
2017-08-11T13:11:50.415Z,21.98
2017-08-11T13:11:51.008Z,22.04
2017-08-11T13:11:51.612Z,21.98
2017-08-11T13:11:52.211Z,21.98
2017-08-11T13:12:46.692Z,21.82
2017-08-11T13:12:47.291Z,21.79
2017-08-11T13:12:47.887Z,21.82
2017-08-11T13:12:48.484Z,21.94
2017-08-11T13:12:49.088Z,21.95
2017-08-11T13:12:49.688Z,21.83
2017-08-11T13:12:50.289Z,21.90
2017-08-11T13:12:50.891Z,21.82
2017-08-11T13:13:44.368Z,21.83
2017-08-11T13:13:44.939Z,21.85
2017-08-11T13:13:45.538Z,21.79
2017-08-11T13:13:46.141Z,21.85
2017-08-11T13:13:46.740Z,21.88
2017-08-11T13:13:47.344Z,21.90
2017-08-11T13:13:47.943Z,21.91
2017-08-11T13:13:48.544Z,21.88
2017-08-11T13:14:43.020Z,21.81
2017-08-11T13:14:43.619Z,21.76
2017-08-11T13:14:44.212Z,21.78
2017-08-11T13:14:44.818Z,21.75
2017-08-11T13:14:45.415Z,21.75
2017-08-11T13:14:46.018Z,21.78
2017-08-11T13:14:46.621Z,21.79
2017-08-11T13:14:47.216Z,21.79
2017-08-11T13:15:40.668Z,21.75